sensor_id;sensor_type;location;lat;lon;timestamp;P1;durP1;ratioP1;P2;durP2;ratioP2
12308;SDS011;6217;48.150;17.142;2023-04-25T00:00:45;1.92;;;1.00;;
12308;SDS011;6217;48.150;17.142;2023-04-25T00:04:52;1.55;;;0.90;;
12308;SDS011;6217;48.150;17.142;2023-04-25T00:09:00;4.47;;;1.30;;
12308;SDS011;6217;48.150;17.142;2023-04-25T00:13:14;1.02;;;0.90;;
12308;SDS011;6217;48.150;17.142;2023-04-25T00:17:23;1.48;;;1.20;;
12308;SDS011;6217;48.150;17.142;2023-04-25T00:21:32;1.63;;;1.02;;
12308;SDS011;6217;48.150;17.142;2023-04-25T00:25:38;0.98;;;0.75;;
12308;SDS011;6217;48.150;17.142;2023-04-25T00:29:44;2.90;;;0.90;;
12308;SDS011;6217;48.150;17.142;2023-04-25T00:33:52;2.85;;;1.92;;
12308;SDS011;6217;48.150;17.142;2023-04-25T00:37:59;1.10;;;0.80;;
12308;SDS011;6217;48.150;17.142;2023-04-25T00:42:07;1.60;;;0.90;;
12308;SDS011;6217;48.150;17.142;2023-04-25T00:46:15;0.98;;;0.80;;
12308;SDS011;6217;48.150;17.142;2023-04-25T00:50:22;1.13;;;0.93;;
12308;SDS011;6217;48.150;17.142;2023-04-25T00:54:32;1.00;;;0.75;;
12308;SDS011;6217;48.150;17.142;2023-04-25T00:58:39;1.90;;;1.35;;
12308;SDS011;6217;48.150;17.142;2023-04-25T01:02:49;1.70;;;0.80;;
12308;SDS011;6217;48.150;17.142;2023-04-25T01:06:55;1.60;;;0.80;;
12308;SDS011;6217;48.150;17.142;2023-04-25T01:11:02;2.40;;;0.77;;
12308;SDS011;6217;48.150;17.142;2023-04-25T01:15:08;1.02;;;0.70;;
12308;SDS011;6217;48.150;17.142;2023-04-25T01:19:17;0.88;;;0.82;;
12308;SDS011;6217;48.150;17.142;2023-04-25T01:23:26;4.80;;;1.02;;
12308;SDS011;6217;48.150;17.142;2023-04-25T01:27:35;1.05;;;0.93;;
12308;SDS011;6217;48.150;17.142;2023-04-25T01:31:42;3.53;;;0.82;;
12308;SDS011;6217;48.150;17.142;2023-04-25T01:35:52;2.28;;;0.85;;
12308;SDS011;6217;48.150;17.142;2023-04-25T01:40:02;1.88;;;0.77;;
12308;SDS011;6217;48.150;17.142;2023-04-25T01:44:10;1.00;;;0.90;;
12308;SDS011;6217;48.150;17.142;2023-04-25T01:48:18;1.48;;;0.70;;
12308;SDS011;6217;48.150;17.142;2023-04-25T01:52:28;2.40;;;0.80;;
12308;SDS011;6217;48.150;17.142;2023-04-25T01:56:37;1.15;;;0.95;;
12308;SDS011;6217;48.150;17.142;2023-04-25T02:00:47;1.17;;;1.02;;
12308;SDS011;6217;48.150;17.142;2023-04-25T02:04:55;1.10;;;1.00;;
12308;SDS011;6217;48.150;17.142;2023-04-25T02:09:03;1.42;;;0.88;;
12308;SDS011;6217;48.150;17.142;2023-04-25T02:13:11;3.03;;;1.15;;
12308;SDS011;6217;48.150;17.142;2023-04-25T02:17:29;1.73;;;0.90;;
12308;SDS011;6217;48.150;17.142;2023-04-25T02:21:37;2.25;;;1.67;;
12308;SDS011;6217;48.150;17.142;2023-04-25T02:25:48;2.50;;;0.90;;
12308;SDS011;6217;48.150;17.142;2023-04-25T02:29:55;1.05;;;0.98;;
12308;SDS011;6217;48.150;17.142;2023-04-25T02:34:01;1.20;;;0.82;;
12308;SDS011;6217;48.150;17.142;2023-04-25T02:38:07;1.00;;;0.90;;
12308;SDS011;6217;48.150;17.142;2023-04-25T02:42:14;0.90;;;0.90;;
12308;SDS011;6217;48.150;17.142;2023-04-25T02:46:20;5.65;;;0.80;;
12308;SDS011;6217;48.150;17.142;2023-04-25T02:50:25;1.08;;;0.98;;
12308;SDS011;6217;48.150;17.142;2023-04-25T02:54:31;1.33;;;1.10;;
12308;SDS011;6217;48.150;17.142;2023-04-25T02:58:38;1.20;;;0.98;;
12308;SDS011;6217;48.150;17.142;2023-04-25T03:02:45;2.15;;;1.00;;
12308;SDS011;6217;48.150;17.142;2023-04-25T03:06:51;1.00;;;0.70;;
12308;SDS011;6217;48.150;17.142;2023-04-25T03:11:00;1.15;;;1.05;;
12308;SDS011;6217;48.150;17.142;2023-04-25T03:15:06;1.67;;;0.75;;
12308;SDS011;6217;48.150;17.142;2023-04-25T03:19:12;1.52;;;1.10;;
12308;SDS011;6217;48.150;17.142;2023-04-25T03:23:21;2.55;;;0.85;;
12308;SDS011;6217;48.150;17.142;2023-04-25T03:27:27;0.98;;;0.88;;
12308;SDS011;6217;48.150;17.142;2023-04-25T03:31:32;1.60;;;0.98;;
12308;SDS011;6217;48.150;17.142;2023-04-25T03:35:38;1.38;;;1.27;;
12308;SDS011;6217;48.150;17.142;2023-04-25T03:39:44;1.75;;;0.90;;
12308;SDS011;6217;48.150;17.142;2023-04-25T03:43:50;2.70;;;1.00;;
12308;SDS011;6217;48.150;17.142;2023-04-25T03:47:56;1.20;;;0.90;;
12308;SDS011;6217;48.150;17.142;2023-04-25T03:52:03;1.52;;;1.40;;
12308;SDS011;6217;48.150;17.142;2023-04-25T03:56:14;0.80;;;0.80;;
12308;SDS011;6217;48.150;17.142;2023-04-25T04:00:22;2.53;;;0.98;;
12308;SDS011;6217;48.150;17.142;2023-04-25T04:04:31;2.60;;;1.13;;
12308;SDS011;6217;48.150;17.142;2023-04-25T04:08:37;1.92;;;1.08;;
12308;SDS011;6217;48.150;17.142;2023-04-25T04:12:43;1.38;;;1.10;;
12308;SDS011;6217;48.150;17.142;2023-04-25T04:16:50;2.38;;;1.50;;
12308;SDS011;6217;48.150;17.142;2023-04-25T04:20:57;1.15;;;1.05;;
12308;SDS011;6217;48.150;17.142;2023-04-25T04:25:04;6.25;;;1.35;;
12308;SDS011;6217;48.150;17.142;2023-04-25T04:29:29;1.65;;;1.05;;
12308;SDS011;6217;48.150;17.142;2023-04-25T04:34:02;1.20;;;1.10;;
12308;SDS011;6217;48.150;17.142;2023-04-25T04:38:09;1.55;;;1.33;;
12308;SDS011;6217;48.150;17.142;2023-04-25T04:42:17;1.23;;;1.10;;
12308;SDS011;6217;48.150;17.142;2023-04-25T04:46:52;1.52;;;1.30;;
12308;SDS011;6217;48.150;17.142;2023-04-25T04:51:19;1.30;;;1.20;;
12308;SDS011;6217;48.150;17.142;2023-04-25T04:55:44;6.05;;;1.77;;
12308;SDS011;6217;48.150;17.142;2023-04-25T05:00:11;4.05;;;1.42;;
12308;SDS011;6217;48.150;17.142;2023-04-25T05:04:56;1.52;;;1.17;;
12308;SDS011;6217;48.150;17.142;2023-04-25T05:09:20;1.23;;;1.10;;
12308;SDS011;6217;48.150;17.142;2023-04-25T05:13:44;2.45;;;1.13;;
12308;SDS011;6217;48.150;17.142;2023-04-25T05:17:58;2.10;;;1.17;;
12308;SDS011;6217;48.150;17.142;2023-04-25T05:22:11;3.47;;;1.33;;
12308;SDS011;6217;48.150;17.142;2023-04-25T05:26:38;1.50;;;1.35;;
12308;SDS011;6217;48.150;17.142;2023-04-25T05:31:06;3.03;;;1.80;;
12308;SDS011;6217;48.150;17.142;2023-04-25T05:35:28;1.45;;;1.17;;
12308;SDS011;6217;48.150;17.142;2023-04-25T05:39:34;3.25;;;1.38;;
12308;SDS011;6217;48.150;17.142;2023-04-25T05:44:03;2.17;;;1.27;;
12308;SDS011;6217;48.150;17.142;2023-04-25T05:48:39;1.25;;;1.15;;
12308;SDS011;6217;48.150;17.142;2023-04-25T05:52:56;3.03;;;1.23;;
12308;SDS011;6217;48.150;17.142;2023-04-25T05:57:25;2.58;;;1.20;;
12308;SDS011;6217;48.150;17.142;2023-04-25T06:02:05;1.55;;;1.33;;
12308;SDS011;6217;48.150;17.142;2023-04-25T06:06:14;1.42;;;1.20;;
12308;SDS011;6217;48.150;17.142;2023-04-25T06:10:20;2.55;;;1.52;;
12308;SDS011;6217;48.150;17.142;2023-04-25T06:14:26;4.32;;;1.60;;
12308;SDS011;6217;48.150;17.142;2023-04-25T06:18:32;2.67;;;1.45;;
12308;SDS011;6217;48.150;17.142;2023-04-25T06:22:38;2.80;;;1.20;;
12308;SDS011;6217;48.150;17.142;2023-04-25T06:26:44;3.78;;;1.60;;
12308;SDS011;6217;48.150;17.142;2023-04-25T06:30:53;4.43;;;1.45;;
12308;SDS011;6217;48.150;17.142;2023-04-25T06:34:59;3.00;;;1.40;;
12308;SDS011;6217;48.150;17.142;2023-04-25T06:39:06;2.33;;;1.17;;
12308;SDS011;6217;48.150;17.142;2023-04-25T06:43:12;3.08;;;1.50;;
12308;SDS011;6217;48.150;17.142;2023-04-25T06:47:33;2.20;;;1.60;;
12308;SDS011;6217;48.150;17.142;2023-04-25T06:51:40;5.47;;;1.52;;
12308;SDS011;6217;48.150;17.142;2023-04-25T06:55:46;4.78;;;2.55;;
12308;SDS011;6217;48.150;17.142;2023-04-25T06:59:56;4.78;;;1.85;;
12308;SDS011;6217;48.150;17.142;2023-04-25T07:04:02;3.13;;;1.65;;
12308;SDS011;6217;48.150;17.142;2023-04-25T07:08:11;2.97;;;1.33;;
12308;SDS011;6217;48.150;17.142;2023-04-25T07:12:17;1.60;;;1.42;;
12308;SDS011;6217;48.150;17.142;2023-04-25T07:16:23;1.70;;;1.40;;
12308;SDS011;6217;48.150;17.142;2023-04-25T07:20:30;4.50;;;1.70;;
12308;SDS011;6217;48.150;17.142;2023-04-25T07:24:38;1.88;;;1.73;;
12308;SDS011;6217;48.150;17.142;2023-04-25T07:28:46;3.45;;;2.25;;
12308;SDS011;6217;48.150;17.142;2023-04-25T07:32:55;3.08;;;2.42;;
12308;SDS011;6217;48.150;17.142;2023-04-25T07:37:01;2.58;;;1.70;;
12308;SDS011;6217;48.150;17.142;2023-04-25T07:41:15;4.20;;;1.63;;
12308;SDS011;6217;48.150;17.142;2023-04-25T07:45:21;3.70;;;2.00;;
12308;SDS011;6217;48.150;17.142;2023-04-25T07:49:27;2.25;;;1.50;;
12308;SDS011;6217;48.150;17.142;2023-04-25T07:53:33;2.00;;;1.83;;
12308;SDS011;6217;48.150;17.142;2023-04-25T07:57:45;2.08;;;1.65;;
12308;SDS011;6217;48.150;17.142;2023-04-25T08:01:51;2.85;;;2.10;;
12308;SDS011;6217;48.150;17.142;2023-04-25T08:05:58;3.15;;;2.13;;
12308;SDS011;6217;48.150;17.142;2023-04-25T08:10:07;6.03;;;1.80;;
12308;SDS011;6217;48.150;17.142;2023-04-25T08:14:14;2.33;;;1.50;;
12308;SDS011;6217;48.150;17.142;2023-04-25T08:18:22;2.20;;;1.55;;
12308;SDS011;6217;48.150;17.142;2023-04-25T08:22:29;3.28;;;1.38;;
12308;SDS011;6217;48.150;17.142;2023-04-25T08:27:02;4.40;;;1.60;;
12308;SDS011;6217;48.150;17.142;2023-04-25T08:31:10;3.28;;;1.23;;
12308;SDS011;6217;48.150;17.142;2023-04-25T08:35:27;4.72;;;1.60;;
12308;SDS011;6217;48.150;17.142;2023-04-25T08:39:33;2.58;;;1.30;;
12308;SDS011;6217;48.150;17.142;2023-04-25T08:44:10;1.60;;;1.50;;
12308;SDS011;6217;48.150;17.142;2023-04-25T08:48:17;2.58;;;1.88;;
12308;SDS011;6217;48.150;17.142;2023-04-25T08:52:23;1.80;;;1.70;;
12308;SDS011;6217;48.150;17.142;2023-04-25T08:56:33;1.65;;;1.40;;
12308;SDS011;6217;48.150;17.142;2023-04-25T09:00:41;2.00;;;1.40;;
12308;SDS011;6217;48.150;17.142;2023-04-25T09:04:47;2.75;;;1.30;;
12308;SDS011;6217;48.150;17.142;2023-04-25T09:08:55;2.38;;;1.50;;
12308;SDS011;6217;48.150;17.142;2023-04-25T09:13:11;3.15;;;1.83;;
12308;SDS011;6217;48.150;17.142;2023-04-25T09:17:42;6.57;;;1.40;;
12308;SDS011;6217;48.150;17.142;2023-04-25T09:21:50;3.28;;;1.70;;
12308;SDS011;6217;48.150;17.142;2023-04-25T09:25:59;2.35;;;1.50;;
12308;SDS011;6217;48.150;17.142;2023-04-25T09:30:05;4.25;;;1.85;;
12308;SDS011;6217;48.150;17.142;2023-04-25T09:34:27;2.28;;;1.60;;
12308;SDS011;6217;48.150;17.142;2023-04-25T09:38:45;2.53;;;1.50;;
12308;SDS011;6217;48.150;17.142;2023-04-25T09:43:00;2.60;;;1.65;;
12308;SDS011;6217;48.150;17.142;2023-04-25T09:47:09;4.63;;;1.60;;
12308;SDS011;6217;48.150;17.142;2023-04-25T09:51:18;1.60;;;1.50;;
12308;SDS011;6217;48.150;17.142;2023-04-25T09:55:25;2.00;;;1.50;;
12308;SDS011;6217;48.150;17.142;2023-04-25T09:59:31;3.47;;;1.70;;
12308;SDS011;6217;48.150;17.142;2023-04-25T10:03:40;2.72;;;1.40;;
12308;SDS011;6217;48.150;17.142;2023-04-25T10:08:02;1.88;;;1.73;;
12308;SDS011;6217;48.150;17.142;2023-04-25T10:12:11;4.25;;;1.60;;
12308;SDS011;6217;48.150;17.142;2023-04-25T10:16:18;3.35;;;1.40;;
12308;SDS011;6217;48.150;17.142;2023-04-25T10:20:24;2.05;;;1.60;;
12308;SDS011;6217;48.150;17.142;2023-04-25T10:24:30;2.70;;;1.63;;
12308;SDS011;6217;48.150;17.142;2023-04-25T10:34:07;2.08;;;1.20;;
12308;SDS011;6217;48.150;17.142;2023-04-25T10:38:39;1.42;;;1.27;;
12308;SDS011;6217;48.150;17.142;2023-04-25T10:42:55;3.45;;;2.25;;
12308;SDS011;6217;48.150;17.142;2023-04-25T10:48:25;3.28;;;1.50;;
12308;SDS011;6217;48.150;17.142;2023-04-25T10:52:32;2.35;;;1.33;;
12308;SDS011;6217;48.150;17.142;2023-04-25T10:56:39;3.90;;;1.20;;
12308;SDS011;6217;48.150;17.142;2023-04-25T11:00:49;2.15;;;1.30;;
12308;SDS011;6217;48.150;17.142;2023-04-25T11:04:55;2.00;;;1.40;;
12308;SDS011;6217;48.150;17.142;2023-04-25T11:09:02;2.33;;;1.30;;
12308;SDS011;6217;48.150;17.142;2023-04-25T11:13:08;1.83;;;1.15;;
12308;SDS011;6217;48.150;17.142;2023-04-25T11:17:14;3.22;;;1.77;;
12308;SDS011;6217;48.150;17.142;2023-04-25T11:21:20;2.58;;;1.58;;
12308;SDS011;6217;48.150;17.142;2023-04-25T11:25:26;3.25;;;1.40;;
12308;SDS011;6217;48.150;17.142;2023-04-25T11:29:32;1.75;;;1.25;;
12308;SDS011;6217;48.150;17.142;2023-04-25T11:33:39;2.33;;;1.27;;
12308;SDS011;6217;48.150;17.142;2023-04-25T11:37:46;1.20;;;1.10;;
12308;SDS011;6217;48.150;17.142;2023-04-25T11:41:52;1.58;;;0.82;;
12308;SDS011;6217;48.150;17.142;2023-04-25T11:45:59;1.10;;;1.00;;
12308;SDS011;6217;48.150;17.142;2023-04-25T11:50:06;3.42;;;0.90;;
12308;SDS011;6217;48.150;17.142;2023-04-25T11:54:13;1.70;;;1.13;;
12308;SDS011;6217;48.150;17.142;2023-04-25T11:58:20;3.30;;;1.20;;
12308;SDS011;6217;48.150;17.142;2023-04-25T12:02:26;3.28;;;1.40;;
12308;SDS011;6217;48.150;17.142;2023-04-25T12:06:32;1.38;;;1.10;;
12308;SDS011;6217;48.150;17.142;2023-04-25T12:10:45;1.77;;;1.15;;
12308;SDS011;6217;48.150;17.142;2023-04-25T12:14:52;0.60;;;0.60;;
12308;SDS011;6217;48.150;17.142;2023-04-25T12:19:00;4.43;;;0.82;;
12308;SDS011;6217;48.150;17.142;2023-04-25T12:23:06;1.35;;;1.25;;
12308;SDS011;6217;48.150;17.142;2023-04-25T12:27:14;1.27;;;1.10;;
12308;SDS011;6217;48.150;17.142;2023-04-25T12:31:23;2.00;;;1.40;;
12308;SDS011;6217;48.150;17.142;2023-04-25T12:35:30;1.45;;;1.35;;
12308;SDS011;6217;48.150;17.142;2023-04-25T12:39:37;1.90;;;1.70;;
12308;SDS011;6217;48.150;17.142;2023-04-25T12:43:43;2.67;;;1.55;;
12308;SDS011;6217;48.150;17.142;2023-04-25T12:47:49;1.33;;;1.00;;
12308;SDS011;6217;48.150;17.142;2023-04-25T12:51:55;1.65;;;1.00;;
12308;SDS011;6217;48.150;17.142;2023-04-25T12:56:01;1.92;;;1.10;;
12308;SDS011;6217;48.150;17.142;2023-04-25T13:00:07;1.08;;;0.98;;
12308;SDS011;6217;48.150;17.142;2023-04-25T13:04:15;1.42;;;1.10;;
12308;SDS011;6217;48.150;17.142;2023-04-25T13:08:21;2.42;;;1.02;;
12308;SDS011;6217;48.150;17.142;2023-04-25T13:12:27;0.98;;;0.82;;
12308;SDS011;6217;48.150;17.142;2023-04-25T13:16:32;4.80;;;1.10;;
12308;SDS011;6217;48.150;17.142;2023-04-25T13:20:38;3.80;;;1.10;;
12308;SDS011;6217;48.150;17.142;2023-04-25T13:24:44;3.90;;;1.95;;
12308;SDS011;6217;48.150;17.142;2023-04-25T13:28:51;1.77;;;1.27;;
12308;SDS011;6217;48.150;17.142;2023-04-25T13:32:57;0.73;;;0.70;;
12308;SDS011;6217;48.150;17.142;2023-04-25T13:37:08;1.00;;;0.80;;
12308;SDS011;6217;48.150;17.142;2023-04-25T13:41:14;3.45;;;1.10;;
12308;SDS011;6217;48.150;17.142;2023-04-25T13:45:23;1.20;;;1.10;;
12308;SDS011;6217;48.150;17.142;2023-04-25T13:49:30;1.75;;;0.80;;
12308;SDS011;6217;48.150;17.142;2023-04-25T13:53:39;1.05;;;0.60;;
12308;SDS011;6217;48.150;17.142;2023-04-25T13:57:45;1.23;;;1.05;;
12308;SDS011;6217;48.150;17.142;2023-04-25T14:01:51;0.45;;;0.45;;
12308;SDS011;6217;48.150;17.142;2023-04-25T14:05:57;1.15;;;0.50;;
12308;SDS011;6217;48.150;17.142;2023-04-25T14:10:03;1.13;;;0.50;;
12308;SDS011;6217;48.150;17.142;2023-04-25T14:14:11;0.40;;;0.40;;
12308;SDS011;6217;48.150;17.142;2023-04-25T14:18:18;2.72;;;0.60;;
12308;SDS011;6217;48.150;17.142;2023-04-25T14:22:24;1.10;;;0.90;;
12308;SDS011;6217;48.150;17.142;2023-04-25T14:26:31;1.13;;;0.70;;
12308;SDS011;6217;48.150;17.142;2023-04-25T14:30:38;0.80;;;0.80;;
12308;SDS011;6217;48.150;17.142;2023-04-25T14:34:44;0.70;;;0.70;;
12308;SDS011;6217;48.150;17.142;2023-04-25T14:38:50;0.70;;;0.70;;
12308;SDS011;6217;48.150;17.142;2023-04-25T14:42:56;1.25;;;0.80;;
12308;SDS011;6217;48.150;17.142;2023-04-25T14:47:02;1.50;;;0.88;;
12308;SDS011;6217;48.150;17.142;2023-04-25T14:51:08;0.85;;;0.50;;
12308;SDS011;6217;48.150;17.142;2023-04-25T14:55:13;0.50;;;0.50;;
12308;SDS011;6217;48.150;17.142;2023-04-25T14:59:19;0.55;;;0.50;;
12308;SDS011;6217;48.150;17.142;2023-04-25T15:03:25;1.15;;;0.50;;
12308;SDS011;6217;48.150;17.142;2023-04-25T15:07:32;1.25;;;0.68;;
12308;SDS011;6217;48.150;17.142;2023-04-25T15:11:39;0.63;;;0.63;;
12308;SDS011;6217;48.150;17.142;2023-04-25T15:15:45;0.88;;;0.63;;
12308;SDS011;6217;48.150;17.142;2023-04-25T15:19:56;0.60;;;0.55;;
12308;SDS011;6217;48.150;17.142;2023-04-25T15:24:02;0.90;;;0.52;;
12308;SDS011;6217;48.150;17.142;2023-04-25T15:28:08;0.75;;;0.60;;
12308;SDS011;6217;48.150;17.142;2023-04-25T15:32:14;0.60;;;0.60;;
12308;SDS011;6217;48.150;17.142;2023-04-25T15:36:20;0.55;;;0.45;;
12308;SDS011;6217;48.150;17.142;2023-04-25T15:40:26;1.77;;;0.50;;
12308;SDS011;6217;48.150;17.142;2023-04-25T15:44:32;1.95;;;0.63;;
12308;SDS011;6217;48.150;17.142;2023-04-25T15:48:38;0.50;;;0.50;;
12308;SDS011;6217;48.150;17.142;2023-04-25T15:52:44;0.80;;;0.45;;
12308;SDS011;6217;48.150;17.142;2023-04-25T15:56:52;0.52;;;0.47;;
12308;SDS011;6217;48.150;17.142;2023-04-25T16:00:58;6.72;;;0.57;;
12308;SDS011;6217;48.150;17.142;2023-04-25T16:05:05;0.73;;;0.47;;
12308;SDS011;6217;48.150;17.142;2023-04-25T16:09:11;1.08;;;0.88;;
12308;SDS011;6217;48.150;17.142;2023-04-25T16:13:17;1.73;;;0.60;;
12308;SDS011;6217;48.150;17.142;2023-04-25T16:17:23;0.80;;;0.73;;
12308;SDS011;6217;48.150;17.142;2023-04-25T16:21:30;0.70;;;0.70;;
12308;SDS011;6217;48.150;17.142;2023-04-25T16:25:36;0.70;;;0.60;;
12308;SDS011;6217;48.150;17.142;2023-04-25T16:29:42;1.98;;;0.70;;
12308;SDS011;6217;48.150;17.142;2023-04-25T16:33:48;1.30;;;1.20;;
12308;SDS011;6217;48.150;17.142;2023-04-25T16:37:54;0.70;;;0.70;;
12308;SDS011;6217;48.150;17.142;2023-04-25T16:42:00;1.08;;;0.55;;
12308;SDS011;6217;48.150;17.142;2023-04-25T16:46:06;1.10;;;0.80;;
12308;SDS011;6217;48.150;17.142;2023-04-25T16:50:12;0.93;;;0.60;;
12308;SDS011;6217;48.150;17.142;2023-04-25T16:54:19;0.73;;;0.70;;
12308;SDS011;6217;48.150;17.142;2023-04-25T16:58:25;0.80;;;0.80;;
12308;SDS011;6217;48.150;17.142;2023-04-25T17:02:33;1.23;;;0.90;;
12308;SDS011;6217;48.150;17.142;2023-04-25T17:06:38;0.90;;;0.80;;
12308;SDS011;6217;48.150;17.142;2023-04-25T17:10:44;1.02;;;0.90;;
12308;SDS011;6217;48.150;17.142;2023-04-25T17:14:50;1.90;;;1.13;;
12308;SDS011;6217;48.150;17.142;2023-04-25T17:18:56;1.83;;;1.10;;
12308;SDS011;6217;48.150;17.142;2023-04-25T17:23:02;1.92;;;1.00;;
12308;SDS011;6217;48.150;17.142;2023-04-25T17:27:09;1.25;;;0.80;;
12308;SDS011;6217;48.150;17.142;2023-04-25T17:31:15;0.85;;;0.80;;
12308;SDS011;6217;48.150;17.142;2023-04-25T17:35:21;2.67;;;0.80;;
12308;SDS011;6217;48.150;17.142;2023-04-25T17:39:27;5.40;;;0.80;;
12308;SDS011;6217;48.150;17.142;2023-04-25T17:43:33;1.70;;;0.90;;
12308;SDS011;6217;48.150;17.142;2023-04-25T17:47:39;1.30;;;0.90;;
12308;SDS011;6217;48.150;17.142;2023-04-25T17:51:45;1.20;;;1.00;;
12308;SDS011;6217;48.150;17.142;2023-04-25T17:55:51;4.18;;;1.00;;
12308;SDS011;6217;48.150;17.142;2023-04-25T17:59:57;2.25;;;0.93;;
12308;SDS011;6217;48.150;17.142;2023-04-25T18:04:04;1.20;;;1.00;;
12308;SDS011;6217;48.150;17.142;2023-04-25T18:08:10;1.67;;;0.88;;
12308;SDS011;6217;48.150;17.142;2023-04-25T18:12:16;1.55;;;1.10;;
12308;SDS011;6217;48.150;17.142;2023-04-25T18:16:22;1.88;;;1.20;;
12308;SDS011;6217;48.150;17.142;2023-04-25T18:20:28;1.80;;;0.95;;
12308;SDS011;6217;48.150;17.142;2023-04-25T18:24:34;1.25;;;1.00;;
12308;SDS011;6217;48.150;17.142;2023-04-25T18:28:40;3.22;;;1.00;;
12308;SDS011;6217;48.150;17.142;2023-04-25T18:32:46;1.48;;;1.05;;
12308;SDS011;6217;48.150;17.142;2023-04-25T18:36:53;1.30;;;1.02;;
12308;SDS011;6217;48.150;17.142;2023-04-25T18:41:00;2.42;;;1.10;;
12308;SDS011;6217;48.150;17.142;2023-04-25T18:45:06;1.92;;;0.90;;
12308;SDS011;6217;48.150;17.142;2023-04-25T18:49:13;1.13;;;0.90;;
12308;SDS011;6217;48.150;17.142;2023-04-25T18:53:20;6.63;;;1.17;;
12308;SDS011;6217;48.150;17.142;2023-04-25T18:57:26;1.38;;;0.95;;
12308;SDS011;6217;48.150;17.142;2023-04-25T19:01:32;1.17;;;0.90;;
12308;SDS011;6217;48.150;17.142;2023-04-25T19:05:38;2.05;;;1.10;;
12308;SDS011;6217;48.150;17.142;2023-04-25T19:09:44;1.80;;;1.20;;
12308;SDS011;6217;48.150;17.142;2023-04-25T19:13:51;1.55;;;1.20;;
12308;SDS011;6217;48.150;17.142;2023-04-25T19:17:59;1.30;;;1.20;;
12308;SDS011;6217;48.150;17.142;2023-04-25T19:22:05;1.70;;;1.20;;
12308;SDS011;6217;48.150;17.142;2023-04-25T19:26:11;1.90;;;1.80;;
12308;SDS011;6217;48.150;17.142;2023-04-25T19:30:17;4.35;;;1.17;;
12308;SDS011;6217;48.150;17.142;2023-04-25T19:34:24;1.38;;;1.27;;
12308;SDS011;6217;48.150;17.142;2023-04-25T19:38:31;1.50;;;1.00;;
12308;SDS011;6217;48.150;17.142;2023-04-25T19:42:37;10.18;;;1.50;;
12308;SDS011;6217;48.150;17.142;2023-04-25T19:46:42;1.85;;;1.30;;
12308;SDS011;6217;48.150;17.142;2023-04-25T19:50:50;2.58;;;1.48;;
12308;SDS011;6217;48.150;17.142;2023-04-25T19:54:56;1.38;;;1.27;;
12308;SDS011;6217;48.150;17.142;2023-04-25T19:59:06;2.40;;;1.98;;
12308;SDS011;6217;48.150;17.142;2023-04-25T20:03:12;2.20;;;2.00;;
12308;SDS011;6217;48.150;17.142;2023-04-25T20:07:20;3.20;;;2.33;;
12308;SDS011;6217;48.150;17.142;2023-04-25T20:11:27;2.30;;;1.90;;
12308;SDS011;6217;48.150;17.142;2023-04-25T20:15:33;2.45;;;2.25;;
12308;SDS011;6217;48.150;17.142;2023-04-25T20:19:39;2.45;;;2.10;;
12308;SDS011;6217;48.150;17.142;2023-04-25T20:23:45;2.72;;;2.10;;
12308;SDS011;6217;48.150;17.142;2023-04-25T20:27:51;5.68;;;2.92;;
12308;SDS011;6217;48.150;17.142;2023-04-25T20:31:57;5.53;;;2.30;;
12308;SDS011;6217;48.150;17.142;2023-04-25T20:36:04;5.00;;;2.40;;
12308;SDS011;6217;48.150;17.142;2023-04-25T20:40:10;4.18;;;2.60;;
12308;SDS011;6217;48.150;17.142;2023-04-25T20:44:16;3.08;;;2.78;;
12308;SDS011;6217;48.150;17.142;2023-04-25T20:48:25;3.75;;;2.88;;
12308;SDS011;6217;48.150;17.142;2023-04-25T20:52:31;4.55;;;3.47;;
12308;SDS011;6217;48.150;17.142;2023-04-25T20:56:37;3.38;;;2.65;;
12308;SDS011;6217;48.150;17.142;2023-04-25T21:00:44;3.45;;;3.00;;
12308;SDS011;6217;48.150;17.142;2023-04-25T21:04:51;3.85;;;2.70;;
12308;SDS011;6217;48.150;17.142;2023-04-25T21:08:57;3.22;;;2.72;;
12308;SDS011;6217;48.150;17.142;2023-04-25T21:13:03;3.33;;;2.85;;
12308;SDS011;6217;48.150;17.142;2023-04-25T21:17:09;3.63;;;3.28;;
12308;SDS011;6217;48.150;17.142;2023-04-25T21:21:15;5.60;;;2.70;;
12308;SDS011;6217;48.150;17.142;2023-04-25T21:25:22;3.38;;;3.10;;
12308;SDS011;6217;48.150;17.142;2023-04-25T21:29:34;3.65;;;3.33;;
12308;SDS011;6217;48.150;17.142;2023-04-25T21:33:40;3.50;;;3.20;;
12308;SDS011;6217;48.150;17.142;2023-04-25T21:37:46;4.40;;;4.00;;
12308;SDS011;6217;48.150;17.142;2023-04-25T21:41:52;4.00;;;3.00;;
12308;SDS011;6217;48.150;17.142;2023-04-25T21:45:59;4.82;;;4.43;;
12308;SDS011;6217;48.150;17.142;2023-04-25T21:50:05;5.22;;;4.32;;
12308;SDS011;6217;48.150;17.142;2023-04-25T21:54:12;5.00;;;3.38;;
12308;SDS011;6217;48.150;17.142;2023-04-25T21:58:18;5.30;;;4.40;;
12308;SDS011;6217;48.150;17.142;2023-04-25T22:02:24;4.50;;;2.95;;
12308;SDS011;6217;48.150;17.142;2023-04-25T22:06:31;6.53;;;4.32;;
12308;SDS011;6217;48.150;17.142;2023-04-25T22:10:37;4.13;;;3.45;;
12308;SDS011;6217;48.150;17.142;2023-04-25T22:14:44;5.90;;;3.67;;
12308;SDS011;6217;48.150;17.142;2023-04-25T22:18:50;5.40;;;4.22;;
12308;SDS011;6217;48.150;17.142;2023-04-25T22:22:57;4.43;;;4.03;;
12308;SDS011;6217;48.150;17.142;2023-04-25T22:27:03;4.88;;;3.35;;
12308;SDS011;6217;48.150;17.142;2023-04-25T22:31:09;7.63;;;3.95;;
12308;SDS011;6217;48.150;17.142;2023-04-25T22:35:14;4.00;;;3.15;;
12308;SDS011;6217;48.150;17.142;2023-04-25T22:39:20;3.28;;;2.97;;
12308;SDS011;6217;48.150;17.142;2023-04-25T22:43:27;6.20;;;3.65;;
12308;SDS011;6217;48.150;17.142;2023-04-25T22:47:36;3.90;;;3.08;;
12308;SDS011;6217;48.150;17.142;2023-04-25T22:51:44;8.05;;;2.45;;
12308;SDS011;6217;48.150;17.142;2023-04-25T22:55:54;4.47;;;2.88;;
12308;SDS011;6217;48.150;17.142;2023-04-25T23:04:12;4.30;;;2.40;;
12308;SDS011;6217;48.150;17.142;2023-04-25T23:08:20;6.78;;;2.80;;
12308;SDS011;6217;48.150;17.142;2023-04-25T23:12:26;3.83;;;2.58;;
12308;SDS011;6217;48.150;17.142;2023-04-25T23:16:32;4.00;;;2.47;;
12308;SDS011;6217;48.150;17.142;2023-04-25T23:20:38;4.25;;;2.90;;
12308;SDS011;6217;48.150;17.142;2023-04-25T23:24:44;4.82;;;3.28;;
12308;SDS011;6217;48.150;17.142;2023-04-25T23:28:50;3.63;;;2.65;;
12308;SDS011;6217;48.150;17.142;2023-04-25T23:32:56;3.55;;;2.70;;
12308;SDS011;6217;48.150;17.142;2023-04-25T23:37:02;4.32;;;2.92;;
12308;SDS011;6217;48.150;17.142;2023-04-25T23:41:08;6.03;;;4.35;;
12308;SDS011;6217;48.150;17.142;2023-04-25T23:45:14;4.50;;;3.50;;
12308;SDS011;6217;48.150;17.142;2023-04-25T23:49:20;5.10;;;2.55;;
12308;SDS011;6217;48.150;17.142;2023-04-25T23:53:26;5.10;;;2.97;;
12308;SDS011;6217;48.150;17.142;2023-04-25T23:57:32;6.78;;;2.90;;
